Search for airport 
image banner adimage banner adimage banner ad
image banner ad

PS69 - Barnhart

Located in Flinton, United States

ICAO - PS69, IATA -

Data provided by Airmate  

General information

Coordinates: N40°43'37" W78°32'22"
Elevation is 1640 feet MSL.
Magnetic variation is -09° East
View others Airports in Pennsylvania

Operational data

Special qualification required
Current time UTC:
Current local time:
Weather at : KFIG - Clearfield-Lawrence ( 37 km )
METAR: KFIG 071254Z AUTO 03006KT 10SM BKN075 BKN090 OVC110 06/01 A2989 RMK AO2 SLP127 T00560006
View NOTAMs / SUP AIP / TFR affecting this airport [VIEW]
Communications frequencies: [VIEW]

Runways:

RWY identifierQFULength (ft)Width (ft)SurfaceLDA (ft)
E2900125GRASS
W2900125GRASS

Airport contact information

Address: Flinton United States

Satellite view of PS69